Historyczne dane pomiarowe

Dodano dane terminowe – wersja testowa.

Dane z okresu 1951-2019

Wersja bazy: 1.34 [2019-03-16, lista zmian], aktualizacja planowana na 2019-04-15

Dane meteo z obszaru Polski uzyskane na podstawie danych udostępnionych przez Instytut Meteorologii i Gospodarki Wodnej – Państwowy Instytut Badawczy.

 

Wybierz Datę:    

       

TemperaturaWilgotnośćWiatrCiśnienieOpadyŚniegCzas trwania zjawisk
 Stacja t tx tn tng RH VA  wxwx mslp ppp RRR   cm mm wxwxwxwxwxwxwx
1956-11-09 -5.4 -1.4 -7.5-10.2 84.0- 4.3 0.7---- 0.0------------
1956-11-08 -3.8 1.0 -7.3-10.6 75.0- 2.7 0.0---- 0.0-- 1---------
1956-11-07 0.7 2.5 -0.4 -0.7 86.8- 7.3 3.0---- 0.6-- 1---------
1956-11-06 2.1 5.6 0.2 -2.1 81.8- 5.0 6.7---- 1.1------------
1956-11-05 3.7 5.9 -5.6 -9.0 91.8- 8.0 2.3---- 1.7------------
1956-11-04 -1.1 4.4 -3.3 -3.1 80.3- 4.3 0.7---- 0.0-- 1---------
1956-11-03 -0.2 3.6 -3.3 -5.7 85.8- 8.0 1.0---- 0.4------------
1956-11-02 -1.0 4.0 -6.9 -9.9 85.3- 5.3 2.3---- 0.0------------
1956-11-01 -3.1 3.8 -9.7-12.4 81.3- 1.0 1.0---- 0.0------------
1956-10-31 -3.8 2.4 -6.3 -2.6 78.0- 4.0 4.3---- 0.0------------
1956-10-30 3.7 6.0 2.1 2.7 93.3- 8.0 2.0---- 0.4------------
1956-10-29 3.9 7.5 -0.5 -5.0 84.3- 6.7 2.3---- 0.7------------
1956-10-28 8.5 11.7 5.0 0.8 80.8- 6.0 2.0---- 4.1------------
1956-10-27 10.1 14.3 2.6 0.0 90.3- 6.3 3.0---- 0.9------------
1956-10-26 6.0 11.3 0.0 -2.4 95.5- 4.7 1.0---- 0.0------------
1956-10-25 8.0 18.1 1.0 -1.4 86.0- 2.7 1.0---- 0.0------------
1956-10-24 9.0 17.4 4.5 1.1 89.0- 2.7 1.0---- 0.0------------
1956-10-23 8.5 16.8 3.3 -0.6 92.3- 0.0 1.0---- 0.0------------
1956-10-22 10.3 18.3 5.9 0.8 90.3- 0.7 1.0---- 0.0------------
1956-10-21 11.3 17.3 9.1 7.3 91.0- 3.7 0.7---- 0.0------------
1956-10-20 11.3 13.1 9.1 3.8 95.0- 8.0 0.7---- 0.3------------
1956-10-19 11.5 14.8 8.0 5.7 87.3- 7.3 3.7---- 0.5------------
1956-10-18 8.7 15.3 -1.2 -4.2 88.5- 6.7 0.3---- 0.6------------
1956-10-17 4.6 14.0 -2.4 -5.1 85.8- 0.0 0.7---- 0.0------------
1956-10-16 4.5 12.9 -2.9 -6.1 83.8- 0.0 0.0---- 0.0------------
1956-10-15 3.5 11.9 -1.3 -5.2 86.3- 0.7 1.7---- 0.0------------
1956-10-14 8.0 13.3 4.8 6.9 78.0- 4.0 7.3---- 3.8------------
1956-10-13 9.5 11.9 4.3 0.5 73.8- 7.3 6.7---- 0.0------------
1956-10-12 7.3 12.5 0.2 -3.3 82.5- 5.0 3.7---- 0.0------------
1956-10-11 3.5 9.8 -1.0 -4.3 84.5- 2.3 2.0---- 0.0------------
1956-10-10 3.8 7.7 1.6 2.7 79.8- 3.0 3.0---- 0.0------------
1956-10-09 6.1 10.6 -1.3 -3.7 82.0- 7.0 1.3---- 0.0------------
1956-10-08 3.2 9.1 -0.5 -4.0 89.3- 5.7 1.0---- 0.0------------
1956-10-07 5.5 8.1 4.0 3.5 84.8- 5.0 5.3---- 0.7------------
1956-10-06 5.7 10.2 2.0 7.6 91.0- 8.0 5.7---- 23.6------------
1956-10-05 10.9 16.1 6.7 4.1 82.8- 6.7 1.3---- 6.5------------
1956-10-04 11.4 13.7 10.1 8.6 94.3- 8.0 1.0---- 8.6------------
1956-10-03 14.7 22.7 9.5 6.4 80.3- 6.7 2.0---- 2.2------------
1956-10-02 15.4 26.9 6.8 3.5 74.8- 1.7 0.7---- 0.0------------
1956-10-01 14.5 25.0 5.9 2.9 86.0- 1.3 0.0---- 0.0------------
1956-09-30 14.0 20.6 9.2 5.0 87.8- 6.0 1.3---- 0.0------------
1956-09-29 14.4 20.3 10.3 5.0 85.3- 4.3 1.3---- 0.0------------
1956-09-28 12.9 17.9 9.5 4.7 86.8- 3.3 1.7---- 0.0------------
1956-09-27 14.9 25.2 9.5 3.3 74.0- 4.7 2.0---- 0.0------------
1956-09-26 12.9 24.0 1.5 -1.6 73.0- 0.0 1.0---- 0.0------------
1956-09-25 10.4 21.7 0.9 -1.0 83.8- 1.0 0.3---- 0.0------------
1956-09-24 9.6 17.0 5.2 1.7 69.0- 2.7 5.7---- 0.0------------
1956-09-23 11.7 19.1 5.4 0.8 82.3- 0.3 6.7---- 0.0------------
1956-09-22 11.9 21.2 2.8 -0.4 76.5- 0.0 1.7---- 0.0------------
1956-09-21 10.9 21.2 2.6 -0.8 81.8- 0.0 0.3---- 0.0------------
1956-09-20 9.4 18.3 0.2 -2.4 82.3- 5.0 0.3---- 0.0------------
1956-09-19 7.3 15.6 -0.2 -2.8 81.8- 1.0 1.7---- 0.0------------
1956-09-18 7.8 13.6 4.8 0.3 82.8- 6.0 2.7---- 0.0------------
1956-09-17 7.8 11.4 5.2 4.9 91.3- 5.7 2.3---- 6.4------------
1956-09-16 11.9 18.8 5.7 2.4 84.5- 5.7 2.3---- 0.0------------
1956-09-15 11.7 17.6 4.5 1.0 83.5- 2.3 2.7---- 0.0------------
1956-09-14 9.4 14.6 5.0 1.1 84.8- 3.3 3.3---- 0.0------------
1956-09-13 9.1 14.0 7.6 5.3 85.0- 4.7 4.0---- 5.2------------
1956-09-12 11.0 16.4 8.5 6.3 91.3- 6.3 4.3---- 7.9------------
1956-09-11 14.8 20.3 13.3 10.7 89.5- 7.0 3.3---- 0.0------------
329.1 ms

 

Źródłem pochodzenia danych jest Instytut Meteorologii i Gospodarki Wodnej – Państwowy Instytut Badawczy. Dane Instytutu Meteorologii i Gospodarki Wodnej – Państwowego Instytutu Badawczego zostały przetworzone.

Dane źródłowe można odnaleźć na stronie https://dane.imgw.pl